createdAt,value
2018-07-24T00:01:32.672Z,36.85
2018-07-24T00:04:01.036Z,33.35
2018-07-24T00:06:29.415Z,30.65
2018-07-24T00:08:57.516Z,38.55
2018-07-24T00:11:25.843Z,36.05
2018-07-24T00:13:54.288Z,36.83
2018-07-24T00:16:22.650Z,38.40
2018-07-24T00:18:51.008Z,32.48
2018-07-24T00:21:19.367Z,31.17
2018-07-24T00:23:47.703Z,33.13
2018-07-24T00:26:16.092Z,34.05
2018-07-24T00:28:44.471Z,33.60
2018-07-24T00:31:12.937Z,40.63
2018-07-24T00:33:41.267Z,37.42
2018-07-24T00:36:09.635Z,33.35
2018-07-24T00:38:38.044Z,32.50
2018-07-24T00:41:06.491Z,37.48
2018-07-24T00:43:34.827Z,29.85
2018-07-24T00:46:03.228Z,37.65
2018-07-24T00:48:31.588Z,33.28
2018-07-24T00:50:59.923Z,32.05
2018-07-24T00:53:28.295Z,32.83
2018-07-24T00:55:56.651Z,33.83
2018-07-24T00:58:25.020Z,33.50
2018-07-24T01:00:53.366Z,31.77
2018-07-24T01:03:21.764Z,30.52
2018-07-24T01:05:50.104Z,38.70
2018-07-24T01:08:18.487Z,34.35
2018-07-24T01:10:46.831Z,32.28
2018-07-24T01:13:15.200Z,31.45
2018-07-24T01:15:43.560Z,32.88
2018-07-24T01:18:11.935Z,29.10
2018-07-24T01:20:40.308Z,44.67
2018-07-24T01:23:08.687Z,36.20
2018-07-24T01:25:37.020Z,33.65
2018-07-24T01:28:05.413Z,36.68
2018-07-24T01:30:33.761Z,32.50
2018-07-24T01:33:02.140Z,35.68
2018-07-24T01:35:30.505Z,35.83
2018-07-24T01:40:30.716Z,36.70
2018-07-24T01:42:59.102Z,33.08
2018-07-24T01:45:27.436Z,33.90
2018-07-24T01:47:55.831Z,31.52
2018-07-24T01:50:24.188Z,41.68
2018-07-24T01:52:52.559Z,35.00
2018-07-24T01:55:20.899Z,36.45
2018-07-24T01:57:49.007Z,36.98
2018-07-24T02:00:18.248Z,33.98
2018-07-24T02:02:46.628Z,36.80
2018-07-24T02:05:14.996Z,39.88
2018-07-24T02:07:43.639Z,33.08
2018-07-24T02:10:12.077Z,34.78
2018-07-24T02:12:40.477Z,38.35
2018-07-24T02:15:08.758Z,32.95
2018-07-24T02:17:37.272Z,35.03
2018-07-24T02:20:05.695Z,37.42
2018-07-24T02:22:34.088Z,34.38
2018-07-24T02:25:02.432Z,38.08
2018-07-24T02:27:30.883Z,30.82
2018-07-24T02:29:59.225Z,32.67
2018-07-24T02:32:27.648Z,36.98
2018-07-24T02:34:56.020Z,33.75
2018-07-24T02:37:24.408Z,32.00
2018-07-24T02:39:52.749Z,37.58
2018-07-24T02:42:21.129Z,34.85
2018-07-24T02:44:49.479Z,38.75
2018-07-24T02:47:17.873Z,37.98
2018-07-24T02:49:46.224Z,39.15
2018-07-24T02:52:14.609Z,36.03
2018-07-24T02:54:42.949Z,35.78
2018-07-24T02:57:11.398Z,36.35
2018-07-24T02:59:39.776Z,37.85
2018-07-24T03:02:08.678Z,35.17
2018-07-24T03:04:36.780Z,39.13
2018-07-24T03:07:05.192Z,36.17
2018-07-24T03:09:33.572Z,34.45
2018-07-24T03:12:01.933Z,38.73
2018-07-24T03:14:30.331Z,31.23
2018-07-24T03:16:58.722Z,34.38
2018-07-24T03:19:27.100Z,36.58
2018-07-24T03:21:55.451Z,38.13
2018-07-24T03:24:23.827Z,32.78
2018-07-24T03:26:52.167Z,37.80
2018-07-24T03:29:20.600Z,43.70
2018-07-24T03:31:48.967Z,41.37
2018-07-24T03:34:17.380Z,41.53
2018-07-24T03:36:45.757Z,36.65
2018-07-24T03:39:14.131Z,41.35
2018-07-24T03:41:42.652Z,32.30
2018-07-24T03:44:11.369Z,36.53
2018-07-24T03:46:39.710Z,39.78
2018-07-24T03:49:08.107Z,45.50
2018-07-24T03:51:36.491Z,41.05
2018-07-24T03:54:04.603Z,41.15
2018-07-24T03:56:32.997Z,45.70
2018-07-24T03:59:01.380Z,48.75
2018-07-24T04:01:29.748Z,42.43
2018-07-24T04:03:58.124Z,41.13
2018-07-24T04:06:26.460Z,41.10
2018-07-24T04:08:54.556Z,43.65
2018-07-24T04:11:22.929Z,50.10
2018-07-24T04:13:51.333Z,40.45
2018-07-24T04:16:19.713Z,31.70
2018-07-24T04:18:49.880Z,44.15
2018-07-24T04:21:19.283Z,38.60
2018-07-24T04:23:48.415Z,41.00
2018-07-24T04:26:16.836Z,38.65
2018-07-24T04:28:46.089Z,41.45
2018-07-24T04:31:15.042Z,47.53
2018-07-24T04:33:44.000Z,40.05
2018-07-24T04:36:12.381Z,38.83
2018-07-24T04:38:40.787Z,42.10
2018-07-24T04:41:09.173Z,40.73
2018-07-24T04:43:37.569Z,43.85
2018-07-24T04:46:05.972Z,41.60
2018-07-24T04:48:34.372Z,40.78
2018-07-24T04:51:02.753Z,40.63
2018-07-24T04:53:31.217Z,40.23
2018-07-24T04:55:59.629Z,37.78
2018-07-24T04:58:27.988Z,43.10
2018-07-24T05:00:56.376Z,40.92
2018-07-24T05:03:24.760Z,35.10
2018-07-24T05:05:53.247Z,35.05
2018-07-24T05:08:21.626Z,37.73
2018-07-24T05:10:50.017Z,39.75
2018-07-24T05:13:18.381Z,39.73
2018-07-24T05:15:46.776Z,39.95
2018-07-24T05:18:15.123Z,40.15
2018-07-24T05:20:43.492Z,40.40
2018-07-24T05:23:11.835Z,39.53
2018-07-24T05:25:40.227Z,43.65
2018-07-24T05:28:08.577Z,37.48
2018-07-24T05:30:36.976Z,39.35
2018-07-24T05:33:05.442Z,40.52
2018-07-24T05:35:33.808Z,44.35
2018-07-24T05:38:02.182Z,45.17
2018-07-24T05:40:30.588Z,35.85
2018-07-24T05:42:58.936Z,36.10
2018-07-24T05:45:27.316Z,36.28
2018-07-24T05:47:55.680Z,44.30
2018-07-24T05:50:23.803Z,43.10
2018-07-24T05:52:52.160Z,44.23
2018-07-24T05:55:20.534Z,37.15
2018-07-24T05:57:48.920Z,34.50
2018-07-24T06:00:17.348Z,44.10
2018-07-24T06:02:45.728Z,39.08
2018-07-24T06:05:14.165Z,49.42
2018-07-24T06:07:42.628Z,40.95
2018-07-24T06:10:11.024Z,40.78
2018-07-24T06:12:39.388Z,43.20
2018-07-24T06:15:08.387Z,45.10
2018-07-24T06:17:36.734Z,53.17
2018-07-24T06:20:07.076Z,49.00
2018-07-24T06:22:35.307Z,49.20
2018-07-24T06:25:03.729Z,47.20
2018-07-24T06:27:32.190Z,51.37
2018-07-24T06:30:00.569Z,47.62
2018-07-24T06:32:28.955Z,48.05
2018-07-24T06:34:57.396Z,48.15
2018-07-24T06:37:25.454Z,46.65
2018-07-24T06:39:53.809Z,51.48
2018-07-24T06:42:22.196Z,49.77
2018-07-24T06:44:50.544Z,60.83
2018-07-24T06:47:18.936Z,50.28
2018-07-24T06:49:47.033Z,51.73
2018-07-24T06:52:15.429Z,45.70
2018-07-24T06:54:44.468Z,37.28
2018-07-24T06:57:12.844Z,36.40
2018-07-24T06:59:41.201Z,37.40
2018-07-24T07:02:09.627Z,32.60
2018-07-24T07:04:37.972Z,36.77
2018-07-24T07:07:06.354Z,33.33
2018-07-24T07:09:34.701Z,33.40
2018-07-24T07:12:03.081Z,40.43
2018-07-24T07:14:31.433Z,40.70
2018-07-24T07:16:59.533Z,45.20
2018-07-24T07:19:27.876Z,28.80
2018-07-24T07:21:56.309Z,36.37
2018-07-24T07:24:24.692Z,35.73
2018-07-24T07:26:53.108Z,27.47
2018-07-24T07:29:21.761Z,27.20
2018-07-24T07:31:51.246Z,28.83
2018-07-24T07:34:19.588Z,29.23
2018-07-24T07:36:48.032Z,29.13
2018-07-24T07:39:16.459Z,24.57
2018-07-24T07:41:44.813Z,20.60
2018-07-24T07:44:13.172Z,21.17
2018-07-24T07:46:41.549Z,24.83
2018-07-24T07:49:09.968Z,24.03
2018-07-24T07:51:38.372Z,22.13
2018-07-24T07:54:06.844Z,21.70
2018-07-24T07:56:35.239Z,23.37
2018-07-24T07:59:03.315Z,22.47
2018-07-24T08:01:31.717Z,26.73
2018-07-24T08:04:00.100Z,22.80
2018-07-24T08:06:28.523Z,21.93
2018-07-24T08:08:56.863Z,22.70
2018-07-24T08:11:25.268Z,22.90
2018-07-24T08:13:53.626Z,34.57
2018-07-24T08:16:22.022Z,24.13
2018-07-24T08:18:50.376Z,25.77
2018-07-24T08:21:18.719Z,21.57
2018-07-24T08:23:47.121Z,19.50
2018-07-24T08:26:15.472Z,20.43
2018-07-24T08:28:43.856Z,24.13
2018-07-24T08:31:12.209Z,25.03
2018-07-24T08:33:40.623Z,18.30
2018-07-24T08:36:08.971Z,19.87
2018-07-24T08:38:37.344Z,22.37
2018-07-24T08:41:05.704Z,20.20
2018-07-24T08:43:34.076Z,20.07
2018-07-24T08:46:02.442Z,23.17
2018-07-24T08:48:30.821Z,25.50
2018-07-24T08:50:59.177Z,17.40
2018-07-24T08:53:27.837Z,20.20
2018-07-24T08:55:55.916Z,23.23
2018-07-24T08:58:24.323Z,20.67
2018-07-24T09:00:52.676Z,16.40
2018-07-24T09:03:21.128Z,20.07
2018-07-24T09:05:49.493Z,21.07
2018-07-24T09:08:17.893Z,14.60
2018-07-24T09:10:46.268Z,17.70
2018-07-24T09:13:14.697Z,14.73
2018-07-24T09:15:43.078Z,18.00
2018-07-24T09:18:11.487Z,20.93
2018-07-24T09:20:39.835Z,15.23
2018-07-24T09:23:08.242Z,15.30
2018-07-24T09:25:36.596Z,13.43
2018-07-24T09:28:05.072Z,18.87
2018-07-24T09:30:33.144Z,16.37
2018-07-24T09:33:01.549Z,15.27
2018-07-24T09:35:29.904Z,17.80
2018-07-24T09:37:58.299Z,15.30
2018-07-24T09:40:26.631Z,14.67
2018-07-24T09:42:55.027Z,16.47
2018-07-24T09:45:23.373Z,14.37
2018-07-24T09:47:51.757Z,14.30
2018-07-24T09:50:20.257Z,13.87
2018-07-24T09:52:48.648Z,16.50
2018-07-24T09:55:17.000Z,14.20
2018-07-24T09:57:45.389Z,12.90
2018-07-24T10:00:13.763Z,14.60
2018-07-24T10:02:42.149Z,16.97
2018-07-24T10:05:10.517Z,15.50
2018-07-24T10:07:38.924Z,13.17
2018-07-24T10:10:07.283Z,16.50
2018-07-24T10:12:35.738Z,13.50
2018-07-24T10:15:04.143Z,16.53
2018-07-24T10:17:32.548Z,17.73
2018-07-24T10:20:00.884Z,16.23
2018-07-24T10:22:29.344Z,18.10
2018-07-24T10:24:57.688Z,12.70
2018-07-24T10:27:26.092Z,16.03
2018-07-24T10:29:54.461Z,11.23
2018-07-24T10:32:22.840Z,12.47
2018-07-24T10:34:51.184Z,13.77
2018-07-24T10:37:19.632Z,12.03
2018-07-24T10:39:48.004Z,12.20
2018-07-24T10:42:16.348Z,12.83
2018-07-24T10:44:44.781Z,11.43
2018-07-24T10:47:13.120Z,13.10
2018-07-24T10:49:41.522Z,14.07
2018-07-24T10:52:09.877Z,13.17
2018-07-24T10:54:38.255Z,13.80
2018-07-24T10:57:06.252Z,14.83
2018-07-24T10:59:34.635Z,17.47
2018-07-24T11:02:02.980Z,10.60
2018-07-24T11:04:31.371Z,9.43
2018-07-24T11:06:59.455Z,9.60
2018-07-24T11:09:27.551Z,14.90
2018-07-24T11:11:55.901Z,12.27
2018-07-24T11:14:24.275Z,11.90
2018-07-24T11:16:52.640Z,14.17
2018-07-24T11:19:21.021Z,11.47
2018-07-24T11:21:49.389Z,16.17
2018-07-24T11:24:17.840Z,14.30
2018-07-24T11:26:46.206Z,13.90
2018-07-24T11:29:14.577Z,19.30
2018-07-24T11:31:42.936Z,15.40
2018-07-24T11:34:11.031Z,17.90
2018-07-24T11:36:39.360Z,11.57
2018-07-24T11:39:09.548Z,12.67
2018-07-24T11:41:37.965Z,14.47
2018-07-24T11:44:06.477Z,12.50
2018-07-24T11:46:34.946Z,14.67
2018-07-24T11:49:03.380Z,12.80
2018-07-24T11:51:31.752Z,15.53
2018-07-24T11:54:00.164Z,15.33
2018-07-24T11:56:28.515Z,16.83
2018-07-24T11:58:56.883Z,12.63
2018-07-24T12:01:25.236Z,12.57
2018-07-24T12:03:53.620Z,10.40
2018-07-24T12:06:21.958Z,10.20
2018-07-24T12:08:50.399Z,11.87
2018-07-24T12:11:18.741Z,14.13
2018-07-24T12:13:47.130Z,12.83
2018-07-24T12:16:15.499Z,13.73
2018-07-24T12:18:43.865Z,12.43
2018-07-24T12:21:12.229Z,14.00
2018-07-24T12:23:40.662Z,14.20
2018-07-24T12:26:08.741Z,12.73
2018-07-24T12:28:36.835Z,13.33
2018-07-24T12:31:05.194Z,12.20
2018-07-24T12:33:33.568Z,23.47
2018-07-24T12:36:01.992Z,11.50
2018-07-24T12:38:30.292Z,13.03
2018-07-24T12:40:58.679Z,16.30
2018-07-24T12:43:27.030Z,11.70
2018-07-24T12:45:55.401Z,10.50
2018-07-24T12:48:23.927Z,9.70
2018-07-24T12:50:52.317Z,16.03
2018-07-24T12:53:20.707Z,18.30
2018-07-24T12:55:48.814Z,14.47
2018-07-24T12:58:17.160Z,13.93
2018-07-24T13:00:45.262Z,15.57
2018-07-24T13:03:13.609Z,18.13
2018-07-24T13:05:41.729Z,12.07
2018-07-24T13:08:10.105Z,12.97
2018-07-24T13:10:38.488Z,10.63
2018-07-24T13:13:06.847Z,11.80
2018-07-24T13:15:35.230Z,9.10
2018-07-24T13:18:03.878Z,11.50
2018-07-24T13:20:32.264Z,10.33
2018-07-24T13:23:00.661Z,11.40
2018-07-24T13:25:29.044Z,13.13
2018-07-24T13:27:57.216Z,10.77
2018-07-24T13:30:25.668Z,14.33
2018-07-24T13:32:54.026Z,12.50
2018-07-24T13:35:22.420Z,13.97
2018-07-24T13:37:50.886Z,11.90
2018-07-24T13:40:19.735Z,9.77
2018-07-24T13:42:48.156Z,10.93
2018-07-24T13:45:16.585Z,9.60
2018-07-24T13:47:44.668Z,12.53
2018-07-24T13:50:12.820Z,10.37
2018-07-24T13:52:41.203Z,9.13
2018-07-24T13:55:09.595Z,12.43
2018-07-24T13:57:37.743Z,10.37
2018-07-24T14:00:06.423Z,8.67
2018-07-24T14:02:34.891Z,10.10
2018-07-24T14:05:10.113Z,10.23
2018-07-24T14:07:38.456Z,10.63
2018-07-24T14:10:06.552Z,10.53
2018-07-24T14:12:35.170Z,11.87
2018-07-24T14:15:03.850Z,18.20
2018-07-24T14:17:32.553Z,10.77
2018-07-24T14:20:01.146Z,11.83
2018-07-24T14:22:29.703Z,11.93
2018-07-24T14:24:58.140Z,12.60
2018-07-24T14:27:26.281Z,12.43
2018-07-24T14:29:54.666Z,11.47
2018-07-24T14:32:23.285Z,9.00
2018-07-24T14:34:51.676Z,11.30
2018-07-24T14:37:20.000Z,9.47
2018-07-24T14:39:48.484Z,13.60
2018-07-24T14:42:16.840Z,9.30
2018-07-24T14:44:45.204Z,7.50
2018-07-24T14:47:13.674Z,12.20
2018-07-24T14:49:42.090Z,12.87
2018-07-24T14:52:10.600Z,9.20
2018-07-24T14:54:39.047Z,11.93
2018-07-24T14:57:07.498Z,10.90
2018-07-24T14:59:35.897Z,8.93
2018-07-24T15:02:04.295Z,9.57
2018-07-24T15:04:32.916Z,9.00
2018-07-24T15:07:01.321Z,8.77
2018-07-24T15:09:29.976Z,10.77
2018-07-24T15:11:58.910Z,10.40
2018-07-24T15:14:27.293Z,10.20
2018-07-24T15:16:55.900Z,11.57
2018-07-24T15:19:24.197Z,9.80
2018-07-24T15:21:52.722Z,10.17
2018-07-24T15:24:21.168Z,9.30
2018-07-24T15:26:49.914Z,10.30
2018-07-24T15:29:18.626Z,9.97
2018-07-24T15:31:47.120Z,11.33
2018-07-24T15:34:15.668Z,11.67
2018-07-24T15:36:44.171Z,10.13
2018-07-24T15:39:14.060Z,10.67
2018-07-24T15:41:43.464Z,9.97
2018-07-24T15:44:11.857Z,12.07
2018-07-24T15:46:40.530Z,12.00
2018-07-24T15:49:09.100Z,10.47
2018-07-24T15:51:37.697Z,10.50
2018-07-24T15:54:06.126Z,9.87
2018-07-24T15:56:41.945Z,10.30
2018-07-24T15:59:10.391Z,8.83
2018-07-24T16:01:38.941Z,12.80
2018-07-24T16:04:07.368Z,15.43
2018-07-24T16:06:35.591Z,10.20
2018-07-24T16:09:06.528Z,10.90
2018-07-24T16:11:35.314Z,11.00
2018-07-24T16:14:03.785Z,9.00
2018-07-24T16:16:32.753Z,10.83
2018-07-24T16:19:01.580Z,10.13
2018-07-24T16:21:30.060Z,10.77
2018-07-24T16:23:58.460Z,11.57
2018-07-24T16:26:27.111Z,11.17
2018-07-24T16:28:55.740Z,9.57
2018-07-24T16:31:24.252Z,12.77
2018-07-24T16:33:52.622Z,9.27
2018-07-24T16:36:21.360Z,11.10
2018-07-24T16:38:50.122Z,12.67
2018-07-24T16:41:18.628Z,11.43
2018-07-24T16:43:47.013Z,15.20
2018-07-24T16:46:15.407Z,9.77
2018-07-24T16:48:43.789Z,11.40
2018-07-24T16:51:12.170Z,11.53
2018-07-24T16:53:40.519Z,10.17
2018-07-24T16:56:09.059Z,11.37
2018-07-24T16:58:37.488Z,9.60
2018-07-24T17:01:05.996Z,13.50
2018-07-24T17:03:34.817Z,11.43
2018-07-24T17:06:03.583Z,17.37
2018-07-24T17:08:31.960Z,9.27
2018-07-24T17:11:00.373Z,10.90
2018-07-24T17:13:28.952Z,14.30
2018-07-24T17:15:57.569Z,11.57
2018-07-24T17:18:26.081Z,8.70
2018-07-24T17:20:54.725Z,11.10
2018-07-24T17:23:23.347Z,12.20
2018-07-24T17:25:51.780Z,13.43
2018-07-24T17:28:20.161Z,12.67
2018-07-24T17:30:48.573Z,12.10
2018-07-24T17:33:17.013Z,11.70
2018-07-24T17:35:45.812Z,11.50
2018-07-24T17:38:14.660Z,14.57
2018-07-24T17:40:43.267Z,9.73
2018-07-24T17:43:11.779Z,10.37
2018-07-24T17:45:40.286Z,10.00
2018-07-24T17:48:09.265Z,19.03
2018-07-24T17:50:37.959Z,11.03
2018-07-24T17:53:06.434Z,10.57
2018-07-24T17:55:34.847Z,12.77
2018-07-24T17:58:03.223Z,9.00
2018-07-24T18:00:31.760Z,10.60
2018-07-24T18:03:00.381Z,16.90
2018-07-24T18:05:28.998Z,9.60
2018-07-24T18:07:57.428Z,12.40
2018-07-24T18:10:25.772Z,13.73
2018-07-24T18:12:54.180Z,12.33
2018-07-24T18:15:22.652Z,13.33
2018-07-24T18:17:50.835Z,13.67
2018-07-24T18:20:19.284Z,19.27
2018-07-24T18:22:47.700Z,12.03
2018-07-24T18:25:16.260Z,10.73
2018-07-24T18:27:44.520Z,10.07
2018-07-24T18:30:12.912Z,12.57
2018-07-24T18:32:41.288Z,12.77
2018-07-24T18:35:10.555Z,13.47
2018-07-24T18:37:39.095Z,12.87
2018-07-24T18:40:07.484Z,10.43
2018-07-24T18:42:35.642Z,11.50
2018-07-24T18:45:04.025Z,12.20
2018-07-24T18:47:32.623Z,11.53
2018-07-24T18:50:01.017Z,9.70
2018-07-24T18:52:29.432Z,11.97
2018-07-24T18:54:57.768Z,13.40
2018-07-24T18:57:26.248Z,12.27
2018-07-24T18:59:54.584Z,16.27
2018-07-24T19:02:22.972Z,10.83
2018-07-24T19:04:51.568Z,12.30
2018-07-24T19:07:19.949Z,13.40
2018-07-24T19:09:48.293Z,11.53
2018-07-24T19:12:16.740Z,13.60
2018-07-24T19:14:45.081Z,14.00
2018-07-24T19:17:13.595Z,11.60
2018-07-24T19:19:41.925Z,13.50
2018-07-24T19:22:10.343Z,13.77
2018-07-24T19:24:38.735Z,12.10
2018-07-24T19:27:07.165Z,16.93
2018-07-24T19:29:35.530Z,17.80
2018-07-24T19:32:04.014Z,13.20
2018-07-24T19:34:32.359Z,13.53
2018-07-24T19:37:00.772Z,15.70
2018-07-24T19:39:29.121Z,14.03
2018-07-24T19:41:57.488Z,17.13
2018-07-24T19:44:25.891Z,14.50
2018-07-24T19:46:54.261Z,16.17
2018-07-24T19:49:22.748Z,16.17
2018-07-24T19:51:51.196Z,22.43
2018-07-24T19:54:19.669Z,19.20
2018-07-24T19:56:48.113Z,16.73
2018-07-24T19:59:16.524Z,15.07
2018-07-24T20:01:44.935Z,17.70
2018-07-24T20:04:13.329Z,23.90
2018-07-24T20:06:41.680Z,18.97
2018-07-24T20:09:11.569Z,18.97
2018-07-24T20:11:39.956Z,15.67
2018-07-24T20:14:08.439Z,17.27
2018-07-24T20:16:36.854Z,24.20
2018-07-24T20:19:05.313Z,22.00
2018-07-24T20:21:33.697Z,16.97
2018-07-24T20:24:02.144Z,22.13
2018-07-24T20:26:30.498Z,23.53
2018-07-24T20:28:58.883Z,21.83
2018-07-24T20:31:27.357Z,22.60
2018-07-24T20:33:55.740Z,20.67
2018-07-24T20:36:24.100Z,17.50
2018-07-24T20:38:52.720Z,22.20
2018-07-24T20:41:20.926Z,18.87
2018-07-24T20:43:49.408Z,17.30
2018-07-24T20:46:17.995Z,37.47
2018-07-24T20:48:46.740Z,17.97
2018-07-24T20:51:15.405Z,17.90
2018-07-24T20:53:43.892Z,18.73
2018-07-24T20:56:12.429Z,16.23
2018-07-24T20:58:40.977Z,18.67
2018-07-24T21:01:10.958Z,15.70
2018-07-24T21:03:39.598Z,18.50
2018-07-24T21:06:08.201Z,20.00
2018-07-24T21:08:36.925Z,22.03
2018-07-24T21:11:05.472Z,19.90
2018-07-24T21:13:34.117Z,22.07
2018-07-24T21:16:28.908Z,17.92
2018-07-24T21:18:57.433Z,17.70
2018-07-24T21:21:26.049Z,19.37
2018-07-24T21:23:55.129Z,18.65
2018-07-24T21:26:23.595Z,21.37
2018-07-24T21:28:52.066Z,21.95
2018-07-24T21:31:20.556Z,19.30
2018-07-24T21:33:49.196Z,19.02
2018-07-24T21:36:18.140Z,21.80
2018-07-24T21:38:46.864Z,17.02
2018-07-24T21:41:15.304Z,19.30
2018-07-24T21:43:43.848Z,20.50
2018-07-24T21:46:12.456Z,17.45
2018-07-24T21:48:41.183Z,20.02
2018-07-24T21:51:16.563Z,19.10
2018-07-24T21:53:45.281Z,17.32
2018-07-24T21:56:13.790Z,19.27
2018-07-24T21:58:42.238Z,22.77
2018-07-24T22:01:11.575Z,24.27
2018-07-24T22:03:40.238Z,20.75
2018-07-24T22:06:08.888Z,20.43
2018-07-24T22:08:37.461Z,17.65
2018-07-24T22:11:05.754Z,24.95
2018-07-24T22:13:34.762Z,18.98
2018-07-24T22:16:03.284Z,19.80
2018-07-24T22:18:31.856Z,18.17
2018-07-24T22:21:00.330Z,17.20
2018-07-24T22:23:28.811Z,16.27
2018-07-24T22:25:57.317Z,26.52
2018-07-24T22:28:25.749Z,20.48
2018-07-24T22:30:54.127Z,17.48
2018-07-24T22:33:22.340Z,18.98
2018-07-24T22:35:50.705Z,16.95
2018-07-24T22:38:19.328Z,19.65
2018-07-24T22:40:47.726Z,19.87
2018-07-24T22:43:16.386Z,21.20
2018-07-24T22:45:45.060Z,22.75
2018-07-24T22:48:13.506Z,19.57
2018-07-24T22:50:41.719Z,18.32
2018-07-24T22:53:10.102Z,18.60
2018-07-24T22:55:38.488Z,21.87
2018-07-24T22:58:07.038Z,15.78
2018-07-24T23:00:35.520Z,21.45
2018-07-24T23:03:03.879Z,16.00
2018-07-24T23:05:32.604Z,17.15
2018-07-24T23:08:00.997Z,20.72
2018-07-24T23:10:33.269Z,18.23
2018-07-24T23:13:03.578Z,15.63
2018-07-24T23:15:32.092Z,19.50
2018-07-24T23:18:00.483Z,17.50
2018-07-24T23:20:29.353Z,17.85
2018-07-24T23:22:57.737Z,19.42
2018-07-24T23:25:26.155Z,21.77
2018-07-24T23:27:54.883Z,18.27
2018-07-24T23:30:23.304Z,22.73
2018-07-24T23:32:51.971Z,23.50
2018-07-24T23:35:20.369Z,22.60
2018-07-24T23:37:48.918Z,19.02
2018-07-24T23:40:17.417Z,20.10
2018-07-24T23:42:45.857Z,20.70
2018-07-24T23:45:14.536Z,23.12
2018-07-24T23:47:42.610Z,22.73
2018-07-24T23:50:11.019Z,19.57
2018-07-24T23:52:39.670Z,18.70
2018-07-24T23:55:08.080Z,23.73
2018-07-24T23:57:36.420Z,23.02
